sensor_id;sensor_type;location;lat;lon;timestamp;P1;durP1;ratioP1;P2;durP2;ratioP2
7539;SDS011;3811;49.006;12.076;2023-05-16T00:01:47;10.23;;;9.17;;
7539;SDS011;3811;49.006;12.076;2023-05-16T00:04:14;8.87;;;8.03;;
7539;SDS011;3811;49.006;12.076;2023-05-16T00:06:41;9.77;;;8.87;;
7539;SDS011;3811;49.006;12.076;2023-05-16T00:09:10;10.33;;;9.23;;
7539;SDS011;3811;49.006;12.076;2023-05-16T00:11:37;9.10;;;8.20;;
7539;SDS011;3811;49.006;12.076;2023-05-16T00:14:04;10.03;;;9.03;;
7539;SDS011;3811;49.006;12.076;2023-05-16T00:16:32;10.23;;;9.23;;
7539;SDS011;3811;49.006;12.076;2023-05-16T00:19:01;10.60;;;9.50;;
7539;SDS011;3811;49.006;12.076;2023-05-16T00:21:28;10.80;;;9.33;;
7539;SDS011;3811;49.006;12.076;2023-05-16T00:23:56;11.43;;;9.00;;
7539;SDS011;3811;49.006;12.076;2023-05-16T00:26:24;10.53;;;9.43;;
7539;SDS011;3811;49.006;12.076;2023-05-16T00:28:52;10.93;;;9.70;;
7539;SDS011;3811;49.006;12.076;2023-05-16T00:31:19;10.53;;;9.53;;
7539;SDS011;3811;49.006;12.076;2023-05-16T00:33:46;10.13;;;9.00;;
7539;SDS011;3811;49.006;12.076;2023-05-16T00:36:13;10.87;;;9.77;;
7539;SDS011;3811;49.006;12.076;2023-05-16T00:38:41;9.80;;;8.80;;
7539;SDS011;3811;49.006;12.076;2023-05-16T00:41:07;9.23;;;8.33;;
7539;SDS011;3811;49.006;12.076;2023-05-16T00:43:36;10.50;;;8.87;;
7539;SDS011;3811;49.006;12.076;2023-05-16T00:46:04;9.37;;;8.47;;
7539;SDS011;3811;49.006;12.076;2023-05-16T00:48:33;10.10;;;8.47;;
7539;SDS011;3811;49.006;12.076;2023-05-16T00:51:00;9.90;;;8.97;;
7539;SDS011;3811;49.006;12.076;2023-05-16T00:53:28;10.13;;;8.77;;
7539;SDS011;3811;49.006;12.076;2023-05-16T00:55:55;10.40;;;9.37;;
7539;SDS011;3811;49.006;12.076;2023-05-16T00:58:23;12.23;;;10.00;;
7539;SDS011;3811;49.006;12.076;2023-05-16T01:00:52;11.27;;;10.07;;
7539;SDS011;3811;49.006;12.076;2023-05-16T01:03:19;10.03;;;8.93;;
7539;SDS011;3811;49.006;12.076;2023-05-16T01:05:47;10.13;;;8.87;;
7539;SDS011;3811;49.006;12.076;2023-05-16T01:08:15;9.53;;;8.63;;
7539;SDS011;3811;49.006;12.076;2023-05-16T01:10:53;9.83;;;8.93;;
7539;SDS011;3811;49.006;12.076;2023-05-16T01:13:23;9.10;;;8.20;;
7539;SDS011;3811;49.006;12.076;2023-05-16T01:15:58;11.17;;;8.27;;
7539;SDS011;3811;49.006;12.076;2023-05-16T01:18:28;9.50;;;8.50;;
7539;SDS011;3811;49.006;12.076;2023-05-16T01:21:03;9.60;;;8.47;;
7539;SDS011;3811;49.006;12.076;2023-05-16T01:23:33;10.23;;;8.50;;
7539;SDS011;3811;49.006;12.076;2023-05-16T01:26:17;10.37;;;8.63;;
7539;SDS011;3811;49.006;12.076;2023-05-16T01:28:46;10.90;;;9.80;;
7539;SDS011;3811;49.006;12.076;2023-05-16T01:31:14;10.63;;;9.53;;
7539;SDS011;3811;49.006;12.076;2023-05-16T01:33:43;10.93;;;9.77;;
7539;SDS011;3811;49.006;12.076;2023-05-16T01:36:12;10.60;;;9.50;;
7539;SDS011;3811;49.006;12.076;2023-05-16T01:38:44;11.20;;;9.03;;
7539;SDS011;3811;49.006;12.076;2023-05-16T01:41:22;10.70;;;8.63;;
7539;SDS011;3811;49.006;12.076;2023-05-16T01:43:58;9.60;;;8.60;;
7539;SDS011;3811;49.006;12.076;2023-05-16T01:46:29;26.57;;;13.23;;
7539;SDS011;3811;49.006;12.076;2023-05-16T01:49:00;35.50;;;12.90;;
7539;SDS011;3811;49.006;12.076;2023-05-16T01:51:30;25.27;;;11.80;;
7539;SDS011;3811;49.006;12.076;2023-05-16T01:53:59;12.40;;;10.73;;
7539;SDS011;3811;49.006;12.076;2023-05-16T01:56:32;13.90;;;10.77;;
7539;SDS011;3811;49.006;12.076;2023-05-16T01:58:59;11.87;;;10.47;;
7539;SDS011;3811;49.006;12.076;2023-05-16T02:01:30;13.33;;;11.13;;
7539;SDS011;3811;49.006;12.076;2023-05-16T02:03:58;13.43;;;11.30;;
7539;SDS011;3811;49.006;12.076;2023-05-16T02:06:25;12.73;;;10.73;;
7539;SDS011;3811;49.006;12.076;2023-05-16T02:08:53;14.00;;;10.63;;
7539;SDS011;3811;49.006;12.076;2023-05-16T02:11:20;13.27;;;10.80;;
7539;SDS011;3811;49.006;12.076;2023-05-16T02:13:49;14.30;;;10.87;;
7539;SDS011;3811;49.006;12.076;2023-05-16T02:16:16;12.63;;;11.03;;
7539;SDS011;3811;49.006;12.076;2023-05-16T02:18:43;17.00;;;11.47;;
7539;SDS011;3811;49.006;12.076;2023-05-16T02:21:10;12.70;;;10.87;;
7539;SDS011;3811;49.006;12.076;2023-05-16T02:23:37;13.10;;;10.80;;
7539;SDS011;3811;49.006;12.076;2023-05-16T02:26:05;12.67;;;10.53;;
7539;SDS011;3811;49.006;12.076;2023-05-16T02:28:32;17.43;;;11.10;;
7539;SDS011;3811;49.006;12.076;2023-05-16T02:31:01;11.73;;;10.53;;
7539;SDS011;3811;49.006;12.076;2023-05-16T02:33:28;10.67;;;9.50;;
7539;SDS011;3811;49.006;12.076;2023-05-16T02:35:55;12.33;;;10.63;;
7539;SDS011;3811;49.006;12.076;2023-05-16T02:38:24;11.97;;;10.63;;
7539;SDS011;3811;49.006;12.076;2023-05-16T02:40:54;10.83;;;9.73;;
7539;SDS011;3811;49.006;12.076;2023-05-16T02:43:21;14.60;;;11.00;;
7539;SDS011;3811;49.006;12.076;2023-05-16T02:45:48;12.57;;;11.27;;
7539;SDS011;3811;49.006;12.076;2023-05-16T02:48:17;14.83;;;12.10;;
7539;SDS011;3811;49.006;12.076;2023-05-16T02:50:44;17.70;;;11.27;;
7539;SDS011;3811;49.006;12.076;2023-05-16T02:53:11;17.47;;;11.80;;
7539;SDS011;3811;49.006;12.076;2023-05-16T02:55:39;16.33;;;11.87;;
7539;SDS011;3811;49.006;12.076;2023-05-16T02:58:06;45.73;;;13.90;;
7539;SDS011;3811;49.006;12.076;2023-05-16T03:00:33;44.43;;;12.70;;
7539;SDS011;3811;49.006;12.076;2023-05-16T03:03:00;13.63;;;11.70;;
7539;SDS011;3811;49.006;12.076;2023-05-16T03:05:29;31.10;;;12.40;;
7539;SDS011;3811;49.006;12.076;2023-05-16T03:07:57;22.80;;;12.30;;
7539;SDS011;3811;49.006;12.076;2023-05-16T03:10:24;28.23;;;12.10;;
7539;SDS011;3811;49.006;12.076;2023-05-16T03:12:51;36.63;;;14.17;;
7539;SDS011;3811;49.006;12.076;2023-05-16T03:15:18;26.13;;;12.33;;
7539;SDS011;3811;49.006;12.076;2023-05-16T03:17:45;20.17;;;12.03;;
7539;SDS011;3811;49.006;12.076;2023-05-16T03:20:13;18.00;;;12.03;;
7539;SDS011;3811;49.006;12.076;2023-05-16T03:22:41;19.67;;;13.20;;
7539;SDS011;3811;49.006;12.076;2023-05-16T03:25:09;13.87;;;11.53;;
7539;SDS011;3811;49.006;12.076;2023-05-16T03:27:39;23.80;;;13.17;;
7539;SDS011;3811;49.006;12.076;2023-05-16T03:30:07;40.43;;;13.43;;
7539;SDS011;3811;49.006;12.076;2023-05-16T03:32:36;16.63;;;12.17;;
7539;SDS011;3811;49.006;12.076;2023-05-16T03:35:03;20.63;;;13.20;;
7539;SDS011;3811;49.006;12.076;2023-05-16T03:37:31;27.63;;;13.20;;
7539;SDS011;3811;49.006;12.076;2023-05-16T03:39:59;17.63;;;11.60;;
7539;SDS011;3811;49.006;12.076;2023-05-16T03:42:29;13.63;;;12.17;;
7539;SDS011;3811;49.006;12.076;2023-05-16T03:44:56;20.90;;;13.13;;
7539;SDS011;3811;49.006;12.076;2023-05-16T03:47:24;13.00;;;11.60;;
7539;SDS011;3811;49.006;12.076;2023-05-16T03:49:54;13.77;;;12.37;;
7539;SDS011;3811;49.006;12.076;2023-05-16T03:52:22;17.90;;;12.87;;
7539;SDS011;3811;49.006;12.076;2023-05-16T03:54:49;16.60;;;11.60;;
7539;SDS011;3811;49.006;12.076;2023-05-16T03:57:17;14.33;;;12.30;;
7539;SDS011;3811;49.006;12.076;2023-05-16T03:59:45;15.23;;;11.80;;
7539;SDS011;3811;49.006;12.076;2023-05-16T04:02:12;15.57;;;13.60;;
7539;SDS011;3811;49.006;12.076;2023-05-16T04:04:40;13.07;;;11.73;;
7539;SDS011;3811;49.006;12.076;2023-05-16T04:07:07;15.70;;;12.70;;
7539;SDS011;3811;49.006;12.076;2023-05-16T04:09:34;15.77;;;12.70;;
7539;SDS011;3811;49.006;12.076;2023-05-16T04:12:02;16.80;;;13.07;;
7539;SDS011;3811;49.006;12.076;2023-05-16T04:14:30;15.40;;;12.90;;
7539;SDS011;3811;49.006;12.076;2023-05-16T04:16:58;16.33;;;13.17;;
7539;SDS011;3811;49.006;12.076;2023-05-16T04:19:25;15.33;;;12.67;;
7539;SDS011;3811;49.006;12.076;2023-05-16T04:21:52;14.43;;;12.43;;
7539;SDS011;3811;49.006;12.076;2023-05-16T04:24:19;15.40;;;12.63;;
7539;SDS011;3811;49.006;12.076;2023-05-16T04:26:50;14.40;;;12.43;;
7539;SDS011;3811;49.006;12.076;2023-05-16T04:29:17;16.37;;;12.47;;
7539;SDS011;3811;49.006;12.076;2023-05-16T04:31:46;16.63;;;13.00;;
7539;SDS011;3811;49.006;12.076;2023-05-16T04:34:14;16.77;;;12.50;;
7539;SDS011;3811;49.006;12.076;2023-05-16T04:36:41;14.70;;;12.07;;
7539;SDS011;3811;49.006;12.076;2023-05-16T04:39:08;14.33;;;11.90;;
7539;SDS011;3811;49.006;12.076;2023-05-16T04:41:36;14.43;;;12.73;;
7539;SDS011;3811;49.006;12.076;2023-05-16T04:44:03;13.53;;;11.03;;
7539;SDS011;3811;49.006;12.076;2023-05-16T04:46:30;17.67;;;11.50;;
7539;SDS011;3811;49.006;12.076;2023-05-16T04:48:59;14.07;;;11.30;;
7539;SDS011;3811;49.006;12.076;2023-05-16T04:51:26;14.90;;;11.03;;
7539;SDS011;3811;49.006;12.076;2023-05-16T04:53:53;11.53;;;10.33;;
7539;SDS011;3811;49.006;12.076;2023-05-16T04:56:21;11.30;;;10.23;;
7539;SDS011;3811;49.006;12.076;2023-05-16T04:58:48;11.00;;;9.87;;
7539;SDS011;3811;49.006;12.076;2023-05-16T05:01:15;11.27;;;10.17;;
7539;SDS011;3811;49.006;12.076;2023-05-16T05:03:42;11.17;;;9.63;;
7539;SDS011;3811;49.006;12.076;2023-05-16T05:06:11;10.80;;;9.70;;
7539;SDS011;3811;49.006;12.076;2023-05-16T05:08:39;10.43;;;9.43;;
7539;SDS011;3811;49.006;12.076;2023-05-16T05:11:06;10.20;;;9.20;;
7539;SDS011;3811;49.006;12.076;2023-05-16T05:13:34;10.57;;;8.80;;
7539;SDS011;3811;49.006;12.076;2023-05-16T05:16:01;11.30;;;9.00;;
7539;SDS011;3811;49.006;12.076;2023-05-16T05:18:29;9.53;;;8.63;;
7539;SDS011;3811;49.006;12.076;2023-05-16T05:20:56;8.83;;;8.07;;
7539;SDS011;3811;49.006;12.076;2023-05-16T05:23:24;9.37;;;8.47;;
7539;SDS011;3811;49.006;12.076;2023-05-16T05:25:51;8.43;;;7.63;;
7539;SDS011;3811;49.006;12.076;2023-05-16T05:28:19;8.90;;;8.10;;
7539;SDS011;3811;49.006;12.076;2023-05-16T05:30:46;10.67;;;8.23;;
7539;SDS011;3811;49.006;12.076;2023-05-16T05:33:15;8.10;;;7.33;;
7539;SDS011;3811;49.006;12.076;2023-05-16T05:35:42;7.60;;;6.90;;
7539;SDS011;3811;49.006;12.076;2023-05-16T05:38:09;8.97;;;8.17;;
7539;SDS011;3811;49.006;12.076;2023-05-16T05:40:38;10.40;;;7.93;;
7539;SDS011;3811;49.006;12.076;2023-05-16T05:43:06;13.17;;;8.27;;
7539;SDS011;3811;49.006;12.076;2023-05-16T05:45:33;8.80;;;8.00;;
7539;SDS011;3811;49.006;12.076;2023-05-16T05:48:01;8.90;;;7.83;;
7539;SDS011;3811;49.006;12.076;2023-05-16T05:50:28;8.40;;;7.43;;
7539;SDS011;3811;49.006;12.076;2023-05-16T05:52:55;9.07;;;8.27;;
7539;SDS011;3811;49.006;12.076;2023-05-16T05:55:22;10.77;;;8.47;;
7539;SDS011;3811;49.006;12.076;2023-05-16T05:57:51;10.67;;;7.90;;
7539;SDS011;3811;49.006;12.076;2023-05-16T06:00:18;9.80;;;8.03;;
7539;SDS011;3811;49.006;12.076;2023-05-16T06:02:46;9.93;;;8.63;;
7539;SDS011;3811;49.006;12.076;2023-05-16T06:05:14;9.10;;;8.20;;
7539;SDS011;3811;49.006;12.076;2023-05-16T06:07:41;9.20;;;8.30;;
7539;SDS011;3811;49.006;12.076;2023-05-16T06:10:08;9.50;;;8.50;;
7539;SDS011;3811;49.006;12.076;2023-05-16T06:12:35;9.67;;;8.47;;
7539;SDS011;3811;49.006;12.076;2023-05-16T06:15:05;9.53;;;7.97;;
7539;SDS011;3811;49.006;12.076;2023-05-16T06:17:32;9.17;;;8.30;;
7539;SDS011;3811;49.006;12.076;2023-05-16T06:19:59;8.17;;;7.37;;
7539;SDS011;3811;49.006;12.076;2023-05-16T06:22:26;10.20;;;7.87;;
7539;SDS011;3811;49.006;12.076;2023-05-16T06:24:54;9.00;;;8.13;;
7539;SDS011;3811;49.006;12.076;2023-05-16T06:27:21;8.93;;;7.97;;
7539;SDS011;3811;49.006;12.076;2023-05-16T06:29:48;8.40;;;7.60;;
7539;SDS011;3811;49.006;12.076;2023-05-16T06:32:17;8.80;;;7.90;;
7539;SDS011;3811;49.006;12.076;2023-05-16T06:34:44;8.23;;;7.53;;
7539;SDS011;3811;49.006;12.076;2023-05-16T06:37:11;11.33;;;7.80;;
7539;SDS011;3811;49.006;12.076;2023-05-16T06:39:39;8.20;;;7.40;;
7539;SDS011;3811;49.006;12.076;2023-05-16T06:42:06;9.63;;;8.20;;
7539;SDS011;3811;49.006;12.076;2023-05-16T06:44:36;8.50;;;7.60;;
7539;SDS011;3811;49.006;12.076;2023-05-16T06:47:03;9.60;;;8.57;;
7539;SDS011;3811;49.006;12.076;2023-05-16T06:49:31;8.67;;;7.90;;
7539;SDS011;3811;49.006;12.076;2023-05-16T06:51:59;8.80;;;7.30;;
7539;SDS011;3811;49.006;12.076;2023-05-16T06:54:26;9.07;;;8.17;;
7539;SDS011;3811;49.006;12.076;2023-05-16T06:56:53;9.87;;;8.57;;
7539;SDS011;3811;49.006;12.076;2023-05-16T06:59:21;8.07;;;7.33;;
7539;SDS011;3811;49.006;12.076;2023-05-16T07:01:51;9.63;;;8.43;;
7539;SDS011;3811;49.006;12.076;2023-05-16T07:04:18;8.67;;;7.80;;
7539;SDS011;3811;49.006;12.076;2023-05-16T07:06:47;9.57;;;8.00;;
7539;SDS011;3811;49.006;12.076;2023-05-16T07:09:14;9.80;;;8.00;;
7539;SDS011;3811;49.006;12.076;2023-05-16T07:11:41;10.80;;;8.33;;
7539;SDS011;3811;49.006;12.076;2023-05-16T07:14:09;8.93;;;8.10;;
7539;SDS011;3811;49.006;12.076;2023-05-16T07:16:36;9.60;;;8.67;;
7539;SDS011;3811;49.006;12.076;2023-05-16T07:19:03;8.83;;;7.93;;
7539;SDS011;3811;49.006;12.076;2023-05-16T07:21:30;9.17;;;8.27;;
7539;SDS011;3811;49.006;12.076;2023-05-16T07:23:58;8.07;;;7.37;;
7539;SDS011;3811;49.006;12.076;2023-05-16T07:26:26;8.70;;;7.80;;
7539;SDS011;3811;49.006;12.076;2023-05-16T07:28:53;8.53;;;7.80;;
7539;SDS011;3811;49.006;12.076;2023-05-16T07:31:20;8.67;;;7.87;;
7539;SDS011;3811;49.006;12.076;2023-05-16T07:33:48;9.17;;;8.07;;
7539;SDS011;3811;49.006;12.076;2023-05-16T07:36:16;8.50;;;7.80;;
7539;SDS011;3811;49.006;12.076;2023-05-16T07:38:43;8.83;;;7.93;;
7539;SDS011;3811;49.006;12.076;2023-05-16T07:41:11;10.27;;;8.13;;
7539;SDS011;3811;49.006;12.076;2023-05-16T07:43:39;8.97;;;7.87;;
7539;SDS011;3811;49.006;12.076;2023-05-16T07:46:06;8.83;;;7.50;;
7539;SDS011;3811;49.006;12.076;2023-05-16T07:48:33;8.63;;;7.10;;
7539;SDS011;3811;49.006;12.076;2023-05-16T07:51:00;8.53;;;7.57;;
7539;SDS011;3811;49.006;12.076;2023-05-16T07:53:27;8.80;;;7.93;;
7539;SDS011;3811;49.006;12.076;2023-05-16T07:55:55;7.90;;;7.20;;
7539;SDS011;3811;49.006;12.076;2023-05-16T07:58:23;8.47;;;7.37;;
7539;SDS011;3811;49.006;12.076;2023-05-16T08:00:51;7.83;;;7.23;;
7539;SDS011;3811;49.006;12.076;2023-05-16T08:03:18;8.70;;;7.33;;
7539;SDS011;3811;49.006;12.076;2023-05-16T08:05:45;12.07;;;8.20;;
7539;SDS011;3811;49.006;12.076;2023-05-16T08:08:13;8.13;;;7.43;;
7539;SDS011;3811;49.006;12.076;2023-05-16T08:10:40;10.47;;;8.20;;
7539;SDS011;3811;49.006;12.076;2023-05-16T08:13:07;8.40;;;7.60;;
7539;SDS011;3811;49.006;12.076;2023-05-16T08:15:36;9.73;;;7.63;;
7539;SDS011;3811;49.006;12.076;2023-05-16T08:18:03;8.53;;;7.60;;
7539;SDS011;3811;49.006;12.076;2023-05-16T08:20:31;10.03;;;7.80;;
7539;SDS011;3811;49.006;12.076;2023-05-16T08:22:58;8.27;;;7.47;;
7539;SDS011;3811;49.006;12.076;2023-05-16T08:25:26;8.20;;;7.40;;
7539;SDS011;3811;49.006;12.076;2023-05-16T08:27:53;7.80;;;7.20;;
7539;SDS011;3811;49.006;12.076;2023-05-16T08:30:21;8.03;;;7.23;;
7539;SDS011;3811;49.006;12.076;2023-05-16T08:32:50;8.07;;;7.37;;
7539;SDS011;3811;49.006;12.076;2023-05-16T08:35:17;8.00;;;7.20;;
7539;SDS011;3811;49.006;12.076;2023-05-16T08:37:44;8.77;;;7.90;;
7539;SDS011;3811;49.006;12.076;2023-05-16T08:40:11;8.63;;;7.83;;
7539;SDS011;3811;49.006;12.076;2023-05-16T08:42:39;7.70;;;7.10;;
7539;SDS011;3811;49.006;12.076;2023-05-16T08:45:08;7.93;;;7.10;;
7539;SDS011;3811;49.006;12.076;2023-05-16T08:47:35;8.50;;;7.63;;
7539;SDS011;3811;49.006;12.076;2023-05-16T08:50:08;8.17;;;7.10;;
7539;SDS011;3811;49.006;12.076;2023-05-16T08:52:36;7.80;;;7.10;;
7539;SDS011;3811;49.006;12.076;2023-05-16T08:55:05;8.27;;;7.47;;
7539;SDS011;3811;49.006;12.076;2023-05-16T08:57:33;7.60;;;6.73;;
7539;SDS011;3811;49.006;12.076;2023-05-16T09:00:01;7.83;;;6.90;;
7539;SDS011;3811;49.006;12.076;2023-05-16T09:02:31;8.37;;;6.83;;
7539;SDS011;3811;49.006;12.076;2023-05-16T09:04:59;7.57;;;6.97;;
7539;SDS011;3811;49.006;12.076;2023-05-16T09:07:27;6.87;;;6.27;;
7539;SDS011;3811;49.006;12.076;2023-05-16T09:09:55;7.20;;;6.50;;
7539;SDS011;3811;49.006;12.076;2023-05-16T09:12:22;6.93;;;6.23;;
7539;SDS011;3811;49.006;12.076;2023-05-16T09:14:50;7.27;;;6.57;;
7539;SDS011;3811;49.006;12.076;2023-05-16T09:17:17;7.13;;;6.43;;
7539;SDS011;3811;49.006;12.076;2023-05-16T09:19:45;7.30;;;6.63;;
7539;SDS011;3811;49.006;12.076;2023-05-16T09:22:14;7.47;;;6.70;;
7539;SDS011;3811;49.006;12.076;2023-05-16T09:24:43;7.27;;;6.67;;
7539;SDS011;3811;49.006;12.076;2023-05-16T09:27:12;7.67;;;6.70;;
7539;SDS011;3811;49.006;12.076;2023-05-16T09:29:39;11.13;;;6.93;;
7539;SDS011;3811;49.006;12.076;2023-05-16T09:32:10;6.80;;;6.30;;
7539;SDS011;3811;49.006;12.076;2023-05-16T09:34:41;7.33;;;6.60;;
7539;SDS011;3811;49.006;12.076;2023-05-16T09:37:09;7.57;;;6.80;;
7539;SDS011;3811;49.006;12.076;2023-05-16T09:39:37;7.40;;;6.80;;
7539;SDS011;3811;49.006;12.076;2023-05-16T09:42:09;6.60;;;6.00;;
7539;SDS011;3811;49.006;12.076;2023-05-16T09:44:36;6.20;;;5.70;;
7539;SDS011;3811;49.006;12.076;2023-05-16T09:47:04;6.30;;;5.80;;
7539;SDS011;3811;49.006;12.076;2023-05-16T09:49:32;6.30;;;5.70;;
7539;SDS011;3811;49.006;12.076;2023-05-16T09:52:02;6.37;;;5.87;;
7539;SDS011;3811;49.006;12.076;2023-05-16T09:54:30;6.60;;;6.10;;
7539;SDS011;3811;49.006;12.076;2023-05-16T09:56:58;7.03;;;6.13;;
7539;SDS011;3811;49.006;12.076;2023-05-16T09:59:28;8.67;;;6.17;;
7539;SDS011;3811;49.006;12.076;2023-05-16T10:01:57;8.50;;;5.90;;
7539;SDS011;3811;49.006;12.076;2023-05-16T10:04:25;7.03;;;6.50;;
7539;SDS011;3811;49.006;12.076;2023-05-16T10:06:52;7.37;;;6.47;;
7539;SDS011;3811;49.006;12.076;2023-05-16T10:09:22;7.70;;;7.10;;
7539;SDS011;3811;49.006;12.076;2023-05-16T10:11:50;7.23;;;6.63;;
7539;SDS011;3811;49.006;12.076;2023-05-16T10:14:17;7.90;;;7.13;;
7539;SDS011;3811;49.006;12.076;2023-05-16T10:16:47;6.83;;;6.13;;
7539;SDS011;3811;49.006;12.076;2023-05-16T10:19:14;7.47;;;6.60;;
7539;SDS011;3811;49.006;12.076;2023-05-16T10:21:44;7.20;;;6.60;;
7539;SDS011;3811;49.006;12.076;2023-05-16T10:24:12;7.03;;;6.43;;
7539;SDS011;3811;49.006;12.076;2023-05-16T10:26:41;7.47;;;6.77;;
7539;SDS011;3811;49.006;12.076;2023-05-16T10:29:08;8.73;;;7.83;;
7539;SDS011;3811;49.006;12.076;2023-05-16T10:31:36;8.13;;;7.33;;
7539;SDS011;3811;49.006;12.076;2023-05-16T10:34:04;7.30;;;6.50;;
7539;SDS011;3811;49.006;12.076;2023-05-16T10:36:32;7.67;;;7.00;;
7539;SDS011;3811;49.006;12.076;2023-05-16T10:39:00;7.87;;;7.17;;
7539;SDS011;3811;49.006;12.076;2023-05-16T10:41:29;8.60;;;7.80;;
7539;SDS011;3811;49.006;12.076;2023-05-16T10:43:56;15.70;;;8.27;;
7539;SDS011;3811;49.006;12.076;2023-05-16T10:46:25;9.13;;;8.33;;
7539;SDS011;3811;49.006;12.076;2023-05-16T10:48:53;10.97;;;9.87;;
7539;SDS011;3811;49.006;12.076;2023-05-16T10:51:34;9.53;;;8.73;;
7539;SDS011;3811;49.006;12.076;2023-05-16T10:54:07;10.57;;;9.57;;
7539;SDS011;3811;49.006;12.076;2023-05-16T10:56:34;10.63;;;8.93;;
7539;SDS011;3811;49.006;12.076;2023-05-16T10:59:02;10.37;;;9.30;;
7539;SDS011;3811;49.006;12.076;2023-05-16T11:01:30;13.53;;;11.13;;
7539;SDS011;3811;49.006;12.076;2023-05-16T11:03:59;15.30;;;11.23;;
7539;SDS011;3811;49.006;12.076;2023-05-16T11:06:27;11.17;;;9.60;;
7539;SDS011;3811;49.006;12.076;2023-05-16T11:09:06;10.63;;;9.53;;
7539;SDS011;3811;49.006;12.076;2023-05-16T11:11:37;15.37;;;10.63;;
7539;SDS011;3811;49.006;12.076;2023-05-16T11:14:05;43.10;;;14.93;;
7539;SDS011;3811;49.006;12.076;2023-05-16T11:16:32;41.13;;;15.30;;
7539;SDS011;3811;49.006;12.076;2023-05-16T11:19:03;8.70;;;7.90;;
7539;SDS011;3811;49.006;12.076;2023-05-16T11:24:34;11.10;;;8.27;;
7539;SDS011;3811;49.006;12.076;2023-05-16T11:27:02;7.73;;;7.07;;
7539;SDS011;3811;49.006;12.076;2023-05-16T11:29:31;8.90;;;7.87;;
7539;SDS011;3811;49.006;12.076;2023-05-16T11:31:59;9.73;;;8.20;;
7539;SDS011;3811;49.006;12.076;2023-05-16T11:34:26;11.03;;;7.87;;
7539;SDS011;3811;49.006;12.076;2023-05-16T11:36:54;9.50;;;8.50;;
7539;SDS011;3811;49.006;12.076;2023-05-16T11:39:21;8.33;;;7.50;;
7539;SDS011;3811;49.006;12.076;2023-05-16T11:41:51;8.27;;;7.27;;
7539;SDS011;3811;49.006;12.076;2023-05-16T11:44:19;7.67;;;6.93;;
7539;SDS011;3811;49.006;12.076;2023-05-16T11:46:46;8.23;;;7.43;;
7539;SDS011;3811;49.006;12.076;2023-05-16T11:49:14;8.27;;;7.50;;
7539;SDS011;3811;49.006;12.076;2023-05-16T11:51:42;8.20;;;7.40;;
7539;SDS011;3811;49.006;12.076;2023-05-16T11:54:10;8.90;;;8.00;;
7539;SDS011;3811;49.006;12.076;2023-05-16T11:56:39;8.23;;;7.53;;
7539;SDS011;3811;49.006;12.076;2023-05-16T11:59:08;13.17;;;8.83;;
7539;SDS011;3811;49.006;12.076;2023-05-16T12:01:37;10.77;;;9.23;;
7539;SDS011;3811;49.006;12.076;2023-05-16T12:04:06;9.30;;;7.80;;
7539;SDS011;3811;49.006;12.076;2023-05-16T12:06:34;8.77;;;7.97;;
7539;SDS011;3811;49.006;12.076;2023-05-16T12:09:02;8.73;;;8.03;;
7539;SDS011;3811;49.006;12.076;2023-05-16T12:11:35;9.37;;;8.57;;
7539;SDS011;3811;49.006;12.076;2023-05-16T12:14:03;9.70;;;8.73;;
7539;SDS011;3811;49.006;12.076;2023-05-16T12:16:32;9.47;;;8.57;;
7539;SDS011;3811;49.006;12.076;2023-05-16T12:19:01;10.83;;;9.10;;
7539;SDS011;3811;49.006;12.076;2023-05-16T12:21:29;9.17;;;8.27;;
7539;SDS011;3811;49.006;12.076;2023-05-16T12:23:56;8.13;;;7.43;;
7539;SDS011;3811;49.006;12.076;2023-05-16T12:26:24;8.00;;;7.30;;
7539;SDS011;3811;49.006;12.076;2023-05-16T12:28:55;8.63;;;7.93;;
7539;SDS011;3811;49.006;12.076;2023-05-16T12:31:25;8.47;;;7.77;;
7539;SDS011;3811;49.006;12.076;2023-05-16T12:33:53;8.83;;;8.03;;
7539;SDS011;3811;49.006;12.076;2023-05-16T12:36:20;7.57;;;6.87;;
7539;SDS011;3811;49.006;12.076;2023-05-16T12:38:48;7.17;;;6.57;;
7539;SDS011;3811;49.006;12.076;2023-05-16T12:41:16;7.87;;;6.77;;
7539;SDS011;3811;49.006;12.076;2023-05-16T12:43:44;8.43;;;7.60;;
7539;SDS011;3811;49.006;12.076;2023-05-16T12:46:12;8.47;;;7.63;;
7539;SDS011;3811;49.006;12.076;2023-05-16T12:48:39;7.90;;;7.20;;
7539;SDS011;3811;49.006;12.076;2023-05-16T12:51:13;8.13;;;7.43;;
7539;SDS011;3811;49.006;12.076;2023-05-16T12:53:41;8.03;;;7.23;;
7539;SDS011;3811;49.006;12.076;2023-05-16T12:56:09;7.97;;;7.27;;
7539;SDS011;3811;49.006;12.076;2023-05-16T12:58:37;8.30;;;7.60;;
7539;SDS011;3811;49.006;12.076;2023-05-16T13:01:05;7.70;;;7.00;;
7539;SDS011;3811;49.006;12.076;2023-05-16T13:03:33;7.63;;;6.83;;
7539;SDS011;3811;49.006;12.076;2023-05-16T13:06:01;7.27;;;6.57;;
7539;SDS011;3811;49.006;12.076;2023-05-16T13:08:32;7.13;;;6.33;;
7539;SDS011;3811;49.006;12.076;2023-05-16T13:11:00;7.00;;;6.23;;
7539;SDS011;3811;49.006;12.076;2023-05-16T13:13:28;6.50;;;5.90;;
7539;SDS011;3811;49.006;12.076;2023-05-16T13:15:55;6.67;;;5.97;;
7539;SDS011;3811;49.006;12.076;2023-05-16T13:18:23;7.43;;;6.60;;
7539;SDS011;3811;49.006;12.076;2023-05-16T13:20:51;7.77;;;7.03;;
7539;SDS011;3811;49.006;12.076;2023-05-16T13:23:18;9.23;;;7.90;;
7539;SDS011;3811;49.006;12.076;2023-05-16T13:25:48;9.30;;;8.40;;
7539;SDS011;3811;49.006;12.076;2023-05-16T13:28:17;10.57;;;8.10;;
7539;SDS011;3811;49.006;12.076;2023-05-16T13:30:45;9.73;;;8.30;;
7539;SDS011;3811;49.006;12.076;2023-05-16T13:33:13;7.67;;;7.00;;
7539;SDS011;3811;49.006;12.076;2023-05-16T13:35:40;7.93;;;7.27;;
7539;SDS011;3811;49.006;12.076;2023-05-16T13:38:09;8.20;;;7.40;;
7539;SDS011;3811;49.006;12.076;2023-05-16T13:40:36;8.70;;;7.83;;
7539;SDS011;3811;49.006;12.076;2023-05-16T13:43:05;8.40;;;7.70;;
7539;SDS011;3811;49.006;12.076;2023-05-16T13:45:33;8.17;;;7.50;;
7539;SDS011;3811;49.006;12.076;2023-05-16T13:48:01;8.23;;;7.53;;
7539;SDS011;3811;49.006;12.076;2023-05-16T13:50:30;9.43;;;8.50;;
7539;SDS011;3811;49.006;12.076;2023-05-16T13:52:58;9.17;;;8.23;;
7539;SDS011;3811;49.006;12.076;2023-05-16T13:55:26;9.87;;;8.53;;
7539;SDS011;3811;49.006;12.076;2023-05-16T13:57:54;9.57;;;8.50;;
7539;SDS011;3811;49.006;12.076;2023-05-16T14:00:22;9.27;;;8.47;;
7539;SDS011;3811;49.006;12.076;2023-05-16T14:02:51;9.47;;;8.67;;
7539;SDS011;3811;49.006;12.076;2023-05-16T14:05:19;10.07;;;9.17;;
7539;SDS011;3811;49.006;12.076;2023-05-16T14:07:47;10.33;;;9.37;;
7539;SDS011;3811;49.006;12.076;2023-05-16T14:10:16;8.37;;;7.67;;
7539;SDS011;3811;49.006;12.076;2023-05-16T14:12:44;8.20;;;7.50;;
7539;SDS011;3811;49.006;12.076;2023-05-16T14:15:11;8.87;;;8.07;;
7539;SDS011;3811;49.006;12.076;2023-05-16T14:17:40;8.83;;;8.03;;
7539;SDS011;3811;49.006;12.076;2023-05-16T14:20:08;9.07;;;8.23;;
7539;SDS011;3811;49.006;12.076;2023-05-16T14:22:36;8.40;;;7.70;;
7539;SDS011;3811;49.006;12.076;2023-05-16T14:25:04;9.40;;;8.60;;
7539;SDS011;3811;49.006;12.076;2023-05-16T14:27:32;9.50;;;8.60;;
7539;SDS011;3811;49.006;12.076;2023-05-16T14:29:59;8.60;;;7.90;;
7539;SDS011;3811;49.006;12.076;2023-05-16T14:32:26;8.80;;;7.97;;
7539;SDS011;3811;49.006;12.076;2023-05-16T14:34:55;10.73;;;9.43;;
7539;SDS011;3811;49.006;12.076;2023-05-16T14:37:22;10.10;;;9.20;;
7539;SDS011;3811;49.006;12.076;2023-05-16T14:39:50;10.00;;;9.00;;
7539;SDS011;3811;49.006;12.076;2023-05-16T14:42:18;9.60;;;8.77;;
7539;SDS011;3811;49.006;12.076;2023-05-16T14:44:45;9.50;;;8.60;;
7539;SDS011;3811;49.006;12.076;2023-05-16T14:47:12;9.20;;;8.40;;
7539;SDS011;3811;49.006;12.076;2023-05-16T14:49:40;7.53;;;6.90;;
7539;SDS011;3811;49.006;12.076;2023-05-16T14:52:09;8.23;;;7.53;;
7539;SDS011;3811;49.006;12.076;2023-05-16T14:54:36;6.00;;;5.50;;
7539;SDS011;3811;49.006;12.076;2023-05-16T14:57:04;5.83;;;5.33;;
7539;SDS011;3811;49.006;12.076;2023-05-16T14:59:32;5.40;;;4.90;;
7539;SDS011;3811;49.006;12.076;2023-05-16T15:01:59;5.13;;;4.73;;